sensor_id;sensor_type;location;lat;lon;timestamp;temperature;humidity
78902;DHT22;70441;44.758;37.686;2023-11-19T00:00:20;9.28;77.59
78902;DHT22;70441;44.758;37.686;2023-11-19T00:01:22;9.34;77.86
78902;DHT22;70441;44.758;37.686;2023-11-19T00:02:24;9.32;77.74
78902;DHT22;70441;44.758;37.686;2023-11-19T00:03:25;9.34;77.42
78902;DHT22;70441;44.758;37.686;2023-11-19T00:04:27;9.35;77.72
78902;DHT22;70441;44.758;37.686;2023-11-19T00:05:28;9.37;77.53
78902;DHT22;70441;44.758;37.686;2023-11-19T00:06:30;9.37;77.72
78902;DHT22;70441;44.758;37.686;2023-11-19T00:07:32;9.39;77.58
78902;DHT22;70441;44.758;37.686;2023-11-19T00:08:33;9.38;77.45
78902;DHT22;70441;44.758;37.686;2023-11-19T00:09:35;9.39;77.52
78902;DHT22;70441;44.758;37.686;2023-11-19T00:10:38;9.41;77.17
78902;DHT22;70441;44.758;37.686;2023-11-19T00:11:40;9.45;77.37
78902;DHT22;70441;44.758;37.686;2023-11-19T00:12:43;9.45;77.55
78902;DHT22;70441;44.758;37.686;2023-11-19T00:13:45;9.49;77.71
78902;DHT22;70441;44.758;37.686;2023-11-19T00:14:47;9.51;77.72
78902;DHT22;70441;44.758;37.686;2023-11-19T00:15:48;9.49;77.95
78902;DHT22;70441;44.758;37.686;2023-11-19T00:16:50;9.52;77.90
78902;DHT22;70441;44.758;37.686;2023-11-19T00:17:52;9.48;77.93
78902;DHT22;70441;44.758;37.686;2023-11-19T00:18:54;9.49;78.12
78902;DHT22;70441;44.758;37.686;2023-11-19T00:19:55;9.51;77.23
78902;DHT22;70441;44.758;37.686;2023-11-19T00:20:57;9.52;77.56
78902;DHT22;70441;44.758;37.686;2023-11-19T00:21:58;9.52;77.81
78902;DHT22;70441;44.758;37.686;2023-11-19T00:23:03;9.55;77.93
78902;DHT22;70441;44.758;37.686;2023-11-19T00:24:05;9.53;77.62
78902;DHT22;70441;44.758;37.686;2023-11-19T00:25:09;9.53;77.85
78902;DHT22;70441;44.758;37.686;2023-11-19T00:26:11;9.49;77.64
78902;DHT22;70441;44.758;37.686;2023-11-19T00:27:15;9.46;77.57
78902;DHT22;70441;44.758;37.686;2023-11-19T00:28:18;9.41;78.02
78902;DHT22;70441;44.758;37.686;2023-11-19T00:29:20;9.39;78.27
78902;DHT22;70441;44.758;37.686;2023-11-19T00:30:22;9.35;78.12
78902;DHT22;70441;44.758;37.686;2023-11-19T00:31:23;9.35;78.41
78902;DHT22;70441;44.758;37.686;2023-11-19T00:32:25;9.32;78.26
78902;DHT22;70441;44.758;37.686;2023-11-19T00:33:27;9.32;78.36
78902;DHT22;70441;44.758;37.686;2023-11-19T00:34:29;9.35;78.44
78902;DHT22;70441;44.758;37.686;2023-11-19T00:35:30;9.34;78.43
78902;DHT22;70441;44.758;37.686;2023-11-19T00:36:33;9.35;78.32
78902;DHT22;70441;44.758;37.686;2023-11-19T00:37:34;9.35;78.32
78902;DHT22;70441;44.758;37.686;2023-11-19T00:38:36;9.34;78.20
78902;DHT22;70441;44.758;37.686;2023-11-19T00:39:37;9.39;78.22
78902;DHT22;70441;44.758;37.686;2023-11-19T00:40:39;9.41;78.46
78902;DHT22;70441;44.758;37.686;2023-11-19T00:41:42;9.38;78.22
78902;DHT22;70441;44.758;37.686;2023-11-19T00:42:43;9.44;78.31
78902;DHT22;70441;44.758;37.686;2023-11-19T00:43:45;9.46;78.04
78902;DHT22;70441;44.758;37.686;2023-11-19T00:44:46;9.46;78.11
78902;DHT22;70441;44.758;37.686;2023-11-19T00:45:48;9.48;77.92
78902;DHT22;70441;44.758;37.686;2023-11-19T00:46:51;9.46;77.92
78902;DHT22;70441;44.758;37.686;2023-11-19T00:47:52;9.48;77.86
78902;DHT22;70441;44.758;37.686;2023-11-19T00:48:53;9.44;78.26
78902;DHT22;70441;44.758;37.686;2023-11-19T00:49:55;9.41;78.49
78902;DHT22;70441;44.758;37.686;2023-11-19T00:50:57;9.42;78.32
78902;DHT22;70441;44.758;37.686;2023-11-19T00:51:59;9.38;78.75
78902;DHT22;70441;44.758;37.686;2023-11-19T00:53:00;9.35;78.48
78902;DHT22;70441;44.758;37.686;2023-11-19T00:54:04;9.35;78.85
78902;DHT22;70441;44.758;37.686;2023-11-19T00:55:06;9.38;79.05
78902;DHT22;70441;44.758;37.686;2023-11-19T00:56:07;9.37;78.77
78902;DHT22;70441;44.758;37.686;2023-11-19T00:57:10;9.31;79.00
78902;DHT22;70441;44.758;37.686;2023-11-19T00:58:11;9.28;79.04
78902;DHT22;70441;44.758;37.686;2023-11-19T00:59:12;9.27;78.92
78902;DHT22;70441;44.758;37.686;2023-11-19T01:00:15;9.24;78.77
78902;DHT22;70441;44.758;37.686;2023-11-19T01:01:19;9.20;79.01
78902;DHT22;70441;44.758;37.686;2023-11-19T01:02:20;9.19;78.83
78902;DHT22;70441;44.758;37.686;2023-11-19T01:03:21;9.17;78.82
78902;DHT22;70441;44.758;37.686;2023-11-19T01:04:23;9.20;78.85
78902;DHT22;70441;44.758;37.686;2023-11-19T01:05:25;9.20;78.90
78902;DHT22;70441;44.758;37.686;2023-11-19T01:06:30;9.17;78.86
78902;DHT22;70441;44.758;37.686;2023-11-19T01:07:31;9.14;78.90
78902;DHT22;70441;44.758;37.686;2023-11-19T01:08:33;9.13;78.98
78902;DHT22;70441;44.758;37.686;2023-11-19T01:09:36;9.09;79.13
78902;DHT22;70441;44.758;37.686;2023-11-19T01:10:37;9.13;79.40
78902;DHT22;70441;44.758;37.686;2023-11-19T01:11:39;9.14;79.56
78902;DHT22;70441;44.758;37.686;2023-11-19T01:12:40;9.16;78.95
78902;DHT22;70441;44.758;37.686;2023-11-19T01:13:42;9.13;79.03
78902;DHT22;70441;44.758;37.686;2023-11-19T01:14:44;9.13;78.88
78902;DHT22;70441;44.758;37.686;2023-11-19T01:15:46;9.11;79.45
78902;DHT22;70441;44.758;37.686;2023-11-19T01:16:48;9.13;79.05
78902;DHT22;70441;44.758;37.686;2023-11-19T01:17:50;9.11;78.90
78902;DHT22;70441;44.758;37.686;2023-11-19T01:18:51;9.11;79.12
78902;DHT22;70441;44.758;37.686;2023-11-19T01:19:53;9.11;79.20
78902;DHT22;70441;44.758;37.686;2023-11-19T01:20:55;9.10;79.27
78902;DHT22;70441;44.758;37.686;2023-11-19T01:21:56;9.11;79.59
78902;DHT22;70441;44.758;37.686;2023-11-19T01:22:57;9.10;79.51
78902;DHT22;70441;44.758;37.686;2023-11-19T01:23:59;9.10;79.82
78902;DHT22;70441;44.758;37.686;2023-11-19T01:25:00;9.11;80.00
78902;DHT22;70441;44.758;37.686;2023-11-19T01:26:03;9.09;79.97
78902;DHT22;70441;44.758;37.686;2023-11-19T01:27:06;9.10;79.91
78902;DHT22;70441;44.758;37.686;2023-11-19T01:28:07;9.11;80.25
78902;DHT22;70441;44.758;37.686;2023-11-19T01:29:09;9.11;80.30
78902;DHT22;70441;44.758;37.686;2023-11-19T01:30:10;9.10;80.49
78902;DHT22;70441;44.758;37.686;2023-11-19T01:31:16;9.13;80.31
78902;DHT22;70441;44.758;37.686;2023-11-19T01:32:17;9.13;80.05
78902;DHT22;70441;44.758;37.686;2023-11-19T01:33:19;9.14;80.13
78902;DHT22;70441;44.758;37.686;2023-11-19T01:34:20;9.14;80.13
78902;DHT22;70441;44.758;37.686;2023-11-19T01:35:21;9.13;80.00
78902;DHT22;70441;44.758;37.686;2023-11-19T01:36:25;9.10;80.16
78902;DHT22;70441;44.758;37.686;2023-11-19T01:37:27;9.07;80.16
78902;DHT22;70441;44.758;37.686;2023-11-19T01:38:28;9.02;80.24
78902;DHT22;70441;44.758;37.686;2023-11-19T01:39:29;8.96;80.08
78902;DHT22;70441;44.758;37.686;2023-11-19T01:40:31;8.94;80.38
78902;DHT22;70441;44.758;37.686;2023-11-19T01:41:35;8.90;80.36
78902;DHT22;70441;44.758;37.686;2023-11-19T01:42:40;8.90;80.51
78902;DHT22;70441;44.758;37.686;2023-11-19T01:43:42;8.89;80.40
78902;DHT22;70441;44.758;37.686;2023-11-19T01:44:55;8.87;80.68
78902;DHT22;70441;44.758;37.686;2023-11-19T01:45:59;8.90;80.88
78902;DHT22;70441;44.758;37.686;2023-11-19T01:47:01;8.92;81.21
78902;DHT22;70441;44.758;37.686;2023-11-19T01:48:03;8.93;80.99
78902;DHT22;70441;44.758;37.686;2023-11-19T01:49:05;8.90;80.87
78902;DHT22;70441;44.758;37.686;2023-11-19T01:50:07;8.93;80.85
78902;DHT22;70441;44.758;37.686;2023-11-19T01:51:11;8.92;80.73
78902;DHT22;70441;44.758;37.686;2023-11-19T01:52:14;8.94;80.36
78902;DHT22;70441;44.758;37.686;2023-11-19T01:53:15;8.93;80.39
78902;DHT22;70441;44.758;37.686;2023-11-19T01:54:17;8.94;80.28
78902;DHT22;70441;44.758;37.686;2023-11-19T01:55:20;8.93;80.57
78902;DHT22;70441;44.758;37.686;2023-11-19T01:56:23;8.96;80.29
78902;DHT22;70441;44.758;37.686;2023-11-19T01:57:25;8.93;79.94
78902;DHT22;70441;44.758;37.686;2023-11-19T01:58:27;8.96;80.31
78902;DHT22;70441;44.758;37.686;2023-11-19T01:59:31;8.96;80.21
78902;DHT22;70441;44.758;37.686;2023-11-19T02:00:32;8.96;80.19
78902;DHT22;70441;44.758;37.686;2023-11-19T02:01:34;8.94;80.15
78902;DHT22;70441;44.758;37.686;2023-11-19T02:02:40;8.94;80.22
78902;DHT22;70441;44.758;37.686;2023-11-19T02:03:42;8.97;80.27
78902;DHT22;70441;44.758;37.686;2023-11-19T02:04:44;8.97;80.24
78902;DHT22;70441;44.758;37.686;2023-11-19T02:05:48;9.03;79.95
78902;DHT22;70441;44.758;37.686;2023-11-19T02:06:51;9.03;79.56
78902;DHT22;70441;44.758;37.686;2023-11-19T02:07:55;9.06;79.66
78902;DHT22;70441;44.758;37.686;2023-11-19T02:08:57;9.06;79.94
78902;DHT22;70441;44.758;37.686;2023-11-19T02:09:58;9.03;80.01
78902;DHT22;70441;44.758;37.686;2023-11-19T02:11:01;9.04;79.90
78902;DHT22;70441;44.758;37.686;2023-11-19T02:12:03;9.06;79.47
78902;DHT22;70441;44.758;37.686;2023-11-19T02:13:05;9.07;79.72
78902;DHT22;70441;44.758;37.686;2023-11-19T02:14:11;9.06;79.87
78902;DHT22;70441;44.758;37.686;2023-11-19T02:15:13;9.09;79.69
78902;DHT22;70441;44.758;37.686;2023-11-19T02:16:14;9.09;79.54
78902;DHT22;70441;44.758;37.686;2023-11-19T02:17:27;9.07;79.50
78902;DHT22;70441;44.758;37.686;2023-11-19T02:18:29;9.04;79.58
78902;DHT22;70441;44.758;37.686;2023-11-19T02:19:31;9.06;79.54
78902;DHT22;70441;44.758;37.686;2023-11-19T02:20:33;9.07;79.54
78902;DHT22;70441;44.758;37.686;2023-11-19T02:21:35;9.06;79.26
78902;DHT22;70441;44.758;37.686;2023-11-19T02:22:36;9.04;79.13
78902;DHT22;70441;44.758;37.686;2023-11-19T02:23:38;9.04;79.61
78902;DHT22;70441;44.758;37.686;2023-11-19T02:24:39;9.03;79.41
78902;DHT22;70441;44.758;37.686;2023-11-19T02:25:42;9.00;79.45
78902;DHT22;70441;44.758;37.686;2023-11-19T02:27:02;9.00;79.85
78902;DHT22;70441;44.758;37.686;2023-11-19T02:28:04;9.00;79.60
78902;DHT22;70441;44.758;37.686;2023-11-19T02:29:06;9.00;79.66
78902;DHT22;70441;44.758;37.686;2023-11-19T02:30:09;8.99;79.79
78902;DHT22;70441;44.758;37.686;2023-11-19T02:31:11;9.02;79.60
78902;DHT22;70441;44.758;37.686;2023-11-19T02:32:12;9.00;79.72
78902;DHT22;70441;44.758;37.686;2023-11-19T02:33:14;8.99;79.82
78902;DHT22;70441;44.758;37.686;2023-11-19T02:34:16;9.00;79.79
78902;DHT22;70441;44.758;37.686;2023-11-19T02:35:17;8.94;79.97
78902;DHT22;70441;44.758;37.686;2023-11-19T02:36:19;8.92;80.06
78902;DHT22;70441;44.758;37.686;2023-11-19T02:37:21;8.87;80.17
78902;DHT22;70441;44.758;37.686;2023-11-19T02:38:22;8.89;80.07
78902;DHT22;70441;44.758;37.686;2023-11-19T02:39:24;8.86;80.20
78902;DHT22;70441;44.758;37.686;2023-11-19T02:40:25;8.87;80.78
78902;DHT22;70441;44.758;37.686;2023-11-19T02:41:27;8.83;80.67
78902;DHT22;70441;44.758;37.686;2023-11-19T02:42:29;8.85;80.25
78902;DHT22;70441;44.758;37.686;2023-11-19T02:43:32;8.80;80.36
78902;DHT22;70441;44.758;37.686;2023-11-19T02:44:34;8.83;80.17
78902;DHT22;70441;44.758;37.686;2023-11-19T02:45:38;8.85;80.46
78902;DHT22;70441;44.758;37.686;2023-11-19T02:46:39;8.87;80.00
78902;DHT22;70441;44.758;37.686;2023-11-19T02:47:44;8.92;80.20
78902;DHT22;70441;44.758;37.686;2023-11-19T02:48:45;8.94;80.18
78902;DHT22;70441;44.758;37.686;2023-11-19T02:49:47;8.94;79.96
78902;DHT22;70441;44.758;37.686;2023-11-19T02:50:48;8.96;80.08
78902;DHT22;70441;44.758;37.686;2023-11-19T02:51:50;8.97;80.21
78902;DHT22;70441;44.758;37.686;2023-11-19T02:52:55;8.94;80.25
78902;DHT22;70441;44.758;37.686;2023-11-19T02:53:57;8.92;80.44
78902;DHT22;70441;44.758;37.686;2023-11-19T02:54:59;8.93;80.58
78902;DHT22;70441;44.758;37.686;2023-11-19T02:56:00;8.96;80.04
78902;DHT22;70441;44.758;37.686;2023-11-19T02:57:07;8.94;80.02
78902;DHT22;70441;44.758;37.686;2023-11-19T02:58:11;8.99;79.88
78902;DHT22;70441;44.758;37.686;2023-11-19T02:59:21;8.96;79.95
78902;DHT22;70441;44.758;37.686;2023-11-19T03:00:28;8.97;79.75
78902;DHT22;70441;44.758;37.686;2023-11-19T03:01:48;8.99;79.96
78902;DHT22;70441;44.758;37.686;2023-11-19T03:02:51;9.02;80.11
78902;DHT22;70441;44.758;37.686;2023-11-19T03:04:11;9.04;79.86
78902;DHT22;70441;44.758;37.686;2023-11-19T03:05:13;9.06;79.67
78902;DHT22;70441;44.758;37.686;2023-11-19T03:06:15;9.09;79.69
78902;DHT22;70441;44.758;37.686;2023-11-19T03:07:17;9.04;79.46
78902;DHT22;70441;44.758;37.686;2023-11-19T03:08:18;9.04;79.50
78902;DHT22;70441;44.758;37.686;2023-11-19T03:09:20;9.06;79.60
78902;DHT22;70441;44.758;37.686;2023-11-19T03:10:21;9.07;79.71
78902;DHT22;70441;44.758;37.686;2023-11-19T03:11:22;9.03;79.74
78902;DHT22;70441;44.758;37.686;2023-11-19T03:12:24;9.02;80.27
78902;DHT22;70441;44.758;37.686;2023-11-19T03:13:25;9.00;80.45
78902;DHT22;70441;44.758;37.686;2023-11-19T03:14:27;9.02;80.61
78902;DHT22;70441;44.758;37.686;2023-11-19T03:15:28;8.99;80.19
78902;DHT22;70441;44.758;37.686;2023-11-19T03:16:30;8.99;80.41
78902;DHT22;70441;44.758;37.686;2023-11-19T03:17:31;9.02;80.32
78902;DHT22;70441;44.758;37.686;2023-11-19T03:18:32;9.04;79.88
78902;DHT22;70441;44.758;37.686;2023-11-19T03:19:34;9.03;79.28
78902;DHT22;70441;44.758;37.686;2023-11-19T03:20:35;9.00;79.24
78902;DHT22;70441;44.758;37.686;2023-11-19T03:21:36;8.99;79.72
78902;DHT22;70441;44.758;37.686;2023-11-19T03:22:37;9.03;79.62
78902;DHT22;70441;44.758;37.686;2023-11-19T03:23:39;9.00;79.49
78902;DHT22;70441;44.758;37.686;2023-11-19T03:24:41;9.02;79.25
78902;DHT22;70441;44.758;37.686;2023-11-19T03:25:42;9.06;79.45
78902;DHT22;70441;44.758;37.686;2023-11-19T03:26:48;9.07;79.32
78902;DHT22;70441;44.758;37.686;2023-11-19T03:27:51;9.07;79.92
78902;DHT22;70441;44.758;37.686;2023-11-19T03:28:52;9.03;79.79
78902;DHT22;70441;44.758;37.686;2023-11-19T03:29:54;9.07;79.44
78902;DHT22;70441;44.758;37.686;2023-11-19T03:30:55;9.14;79.05
78902;DHT22;70441;44.758;37.686;2023-11-19T03:31:56;9.14;79.52
78902;DHT22;70441;44.758;37.686;2023-11-19T03:32:58;9.19;78.97
78902;DHT22;70441;44.758;37.686;2023-11-19T03:34:03;9.13;78.90
78902;DHT22;70441;44.758;37.686;2023-11-19T03:35:05;9.14;79.22
78902;DHT22;70441;44.758;37.686;2023-11-19T03:36:10;9.13;79.06
78902;DHT22;70441;44.758;37.686;2023-11-19T03:37:11;9.11;79.05
78902;DHT22;70441;44.758;37.686;2023-11-19T03:38:13;9.09;79.30
78902;DHT22;70441;44.758;37.686;2023-11-19T03:39:15;9.10;79.28
78902;DHT22;70441;44.758;37.686;2023-11-19T03:40:17;9.11;79.44
78902;DHT22;70441;44.758;37.686;2023-11-19T03:41:21;9.07;79.37
78902;DHT22;70441;44.758;37.686;2023-11-19T03:42:22;9.07;79.04
78902;DHT22;70441;44.758;37.686;2023-11-19T03:43:24;9.09;79.06
78902;DHT22;70441;44.758;37.686;2023-11-19T03:44:27;9.06;79.13
78902;DHT22;70441;44.758;37.686;2023-11-19T03:45:28;9.06;79.30
78902;DHT22;70441;44.758;37.686;2023-11-19T03:46:29;9.07;79.34
78902;DHT22;70441;44.758;37.686;2023-11-19T03:47:31;9.09;79.26
78902;DHT22;70441;44.758;37.686;2023-11-19T03:48:32;9.07;79.47
78902;DHT22;70441;44.758;37.686;2023-11-19T03:49:33;9.06;79.71
78902;DHT22;70441;44.758;37.686;2023-11-19T03:50:34;9.03;79.48
78902;DHT22;70441;44.758;37.686;2023-11-19T03:51:36;9.06;79.86
78902;DHT22;70441;44.758;37.686;2023-11-19T03:52:37;9.06;79.83
78902;DHT22;70441;44.758;37.686;2023-11-19T03:53:38;9.06;79.26
78902;DHT22;70441;44.758;37.686;2023-11-19T03:54:40;9.06;79.33
78902;DHT22;70441;44.758;37.686;2023-11-19T03:55:41;9.09;79.60
78902;DHT22;70441;44.758;37.686;2023-11-19T03:56:42;9.06;79.21
78902;DHT22;70441;44.758;37.686;2023-11-19T03:57:44;9.04;79.39
78902;DHT22;70441;44.758;37.686;2023-11-19T03:58:45;9.04;79.73
78902;DHT22;70441;44.758;37.686;2023-11-19T03:59:46;9.03;79.85
78902;DHT22;70441;44.758;37.686;2023-11-19T04:00:48;9.02;80.12
78902;DHT22;70441;44.758;37.686;2023-11-19T04:01:49;9.04;80.29
78902;DHT22;70441;44.758;37.686;2023-11-19T04:02:50;9.03;80.12
78902;DHT22;70441;44.758;37.686;2023-11-19T04:03:52;9.00;80.04
78902;DHT22;70441;44.758;37.686;2023-11-19T04:04:54;9.02;80.34
78902;DHT22;70441;44.758;37.686;2023-11-19T04:05:56;9.00;80.47
78902;DHT22;70441;44.758;37.686;2023-11-19T04:06:57;8.96;80.28
78902;DHT22;70441;44.758;37.686;2023-11-19T04:07:59;8.96;80.29
78902;DHT22;70441;44.758;37.686;2023-11-19T04:09:00;8.96;80.46
78902;DHT22;70441;44.758;37.686;2023-11-19T04:10:01;8.94;80.43
78902;DHT22;70441;44.758;37.686;2023-11-19T04:11:04;8.93;80.44
78902;DHT22;70441;44.758;37.686;2023-11-19T04:12:06;8.93;80.50
78902;DHT22;70441;44.758;37.686;2023-11-19T04:13:07;8.90;80.01
78902;DHT22;70441;44.758;37.686;2023-11-19T04:14:09;8.90;80.40
78902;DHT22;70441;44.758;37.686;2023-11-19T04:15:11;8.94;80.83
78902;DHT22;70441;44.758;37.686;2023-11-19T04:16:13;8.90;80.76
78902;DHT22;70441;44.758;37.686;2023-11-19T04:17:16;8.93;80.62
78902;DHT22;70441;44.758;37.686;2023-11-19T04:18:17;8.92;80.56
78902;DHT22;70441;44.758;37.686;2023-11-19T04:19:19;8.92;80.44
78902;DHT22;70441;44.758;37.686;2023-11-19T04:20:20;8.94;80.68
78902;DHT22;70441;44.758;37.686;2023-11-19T04:21:25;8.96;80.77
78902;DHT22;70441;44.758;37.686;2023-11-19T04:22:26;8.93;80.82
78902;DHT22;70441;44.758;37.686;2023-11-19T04:23:27;8.97;80.83
78902;DHT22;70441;44.758;37.686;2023-11-19T04:24:29;8.96;80.35
78902;DHT22;70441;44.758;37.686;2023-11-19T04:25:30;8.97;80.01
78902;DHT22;70441;44.758;37.686;2023-11-19T04:26:31;8.97;79.69
78902;DHT22;70441;44.758;37.686;2023-11-19T04:27:32;8.96;79.52
78902;DHT22;70441;44.758;37.686;2023-11-19T04:28:35;9.00;79.36
78902;DHT22;70441;44.758;37.686;2023-11-19T04:29:36;9.00;79.42
78902;DHT22;70441;44.758;37.686;2023-11-19T04:30:37;8.99;79.55
78902;DHT22;70441;44.758;37.686;2023-11-19T04:31:39;9.02;79.60
78902;DHT22;70441;44.758;37.686;2023-11-19T04:32:40;8.99;79.66
78902;DHT22;70441;44.758;37.686;2023-11-19T04:33:46;8.92;80.40
78902;DHT22;70441;44.758;37.686;2023-11-19T04:34:48;8.90;80.12
78902;DHT22;70441;44.758;37.686;2023-11-19T04:35:49;8.89;80.52
78902;DHT22;70441;44.758;37.686;2023-11-19T04:36:50;8.90;80.33
78902;DHT22;70441;44.758;37.686;2023-11-19T04:37:52;8.90;80.28
78902;DHT22;70441;44.758;37.686;2023-11-19T04:38:53;8.93;80.45
78902;DHT22;70441;44.758;37.686;2023-11-19T04:39:54;8.92;80.06
78902;DHT22;70441;44.758;37.686;2023-11-19T04:40:55;8.94;79.72
78902;DHT22;70441;44.758;37.686;2023-11-19T04:41:57;8.99;79.70
78902;DHT22;70441;44.758;37.686;2023-11-19T04:43:00;8.99;79.72
78902;DHT22;70441;44.758;37.686;2023-11-19T04:44:02;8.94;79.73
78902;DHT22;70441;44.758;37.686;2023-11-19T04:45:03;8.94;80.06
78902;DHT22;70441;44.758;37.686;2023-11-19T04:46:09;8.97;79.70
78902;DHT22;70441;44.758;37.686;2023-11-19T04:47:11;8.96;79.75
78902;DHT22;70441;44.758;37.686;2023-11-19T04:48:12;8.97;79.86
78902;DHT22;70441;44.758;37.686;2023-11-19T04:49:13;8.96;80.13
78902;DHT22;70441;44.758;37.686;2023-11-19T04:50:19;8.96;80.38
78902;DHT22;70441;44.758;37.686;2023-11-19T04:51:23;8.97;80.52
78902;DHT22;70441;44.758;37.686;2023-11-19T04:52:24;8.97;80.39
78902;DHT22;70441;44.758;37.686;2023-11-19T04:53:25;8.97;80.23
78902;DHT22;70441;44.758;37.686;2023-11-19T04:54:27;9.00;80.62
78902;DHT22;70441;44.758;37.686;2023-11-19T04:55:28;9.00;80.13
78902;DHT22;70441;44.758;37.686;2023-11-19T04:56:29;9.00;80.36
78902;DHT22;70441;44.758;37.686;2023-11-19T04:57:31;8.97;80.03
78902;DHT22;70441;44.758;37.686;2023-11-19T04:58:33;8.97;80.26
78902;DHT22;70441;44.758;37.686;2023-11-19T04:59:35;9.00;80.28
78902;DHT22;70441;44.758;37.686;2023-11-19T05:00:36;9.04;80.10
78902;DHT22;70441;44.758;37.686;2023-11-19T05:01:37;9.02;79.82
78902;DHT22;70441;44.758;37.686;2023-11-19T05:02:39;9.03;80.06
78902;DHT22;70441;44.758;37.686;2023-11-19T05:03:40;9.04;79.95
78902;DHT22;70441;44.758;37.686;2023-11-19T05:04:42;9.07;79.86
78902;DHT22;70441;44.758;37.686;2023-11-19T05:05:45;9.07;79.67
78902;DHT22;70441;44.758;37.686;2023-11-19T05:06:46;9.07;79.68
78902;DHT22;70441;44.758;37.686;2023-11-19T05:07:50;9.06;79.57
78902;DHT22;70441;44.758;37.686;2023-11-19T05:08:52;9.04;80.11
78902;DHT22;70441;44.758;37.686;2023-11-19T05:09:53;9.04;80.30
78902;DHT22;70441;44.758;37.686;2023-11-19T05:10:56;9.03;80.24
78902;DHT22;70441;44.758;37.686;2023-11-19T05:11:58;9.04;80.40
78902;DHT22;70441;44.758;37.686;2023-11-19T05:13:00;9.03;80.07
78902;DHT22;70441;44.758;37.686;2023-11-19T05:14:21;9.07;80.17
78902;DHT22;70441;44.758;37.686;2023-11-19T05:15:23;9.09;79.85
78902;DHT22;70441;44.758;37.686;2023-11-19T05:16:25;9.09;80.10
78902;DHT22;70441;44.758;37.686;2023-11-19T05:17:30;9.10;79.95
78902;DHT22;70441;44.758;37.686;2023-11-19T05:18:31;9.09;79.82
78902;DHT22;70441;44.758;37.686;2023-11-19T05:19:33;9.11;80.02
78902;DHT22;70441;44.758;37.686;2023-11-19T05:20:34;9.10;80.10
78902;DHT22;70441;44.758;37.686;2023-11-19T05:21:35;9.07;79.87
78902;DHT22;70441;44.758;37.686;2023-11-19T05:22:37;9.10;79.46
78902;DHT22;70441;44.758;37.686;2023-11-19T05:23:38;9.10;79.54
78902;DHT22;70441;44.758;37.686;2023-11-19T05:24:40;9.11;80.03
78902;DHT22;70441;44.758;37.686;2023-11-19T05:25:41;9.10;79.86
78902;DHT22;70441;44.758;37.686;2023-11-19T05:26:43;9.10;80.44
78902;DHT22;70441;44.758;37.686;2023-11-19T05:27:44;9.07;80.62
78902;DHT22;70441;44.758;37.686;2023-11-19T05:28:46;9.07;80.50
78902;DHT22;70441;44.758;37.686;2023-11-19T05:29:47;9.06;80.61
78902;DHT22;70441;44.758;37.686;2023-11-19T05:30:48;9.03;80.66
78902;DHT22;70441;44.758;37.686;2023-11-19T05:31:50;9.00;80.48
78902;DHT22;70441;44.758;37.686;2023-11-19T05:32:51;8.99;80.95
78902;DHT22;70441;44.758;37.686;2023-11-19T05:33:52;8.96;80.88
78902;DHT22;70441;44.758;37.686;2023-11-19T05:34:53;8.96;81.01
78902;DHT22;70441;44.758;37.686;2023-11-19T05:35:55;8.97;80.69
78902;DHT22;70441;44.758;37.686;2023-11-19T05:36:58;8.99;80.67
78902;DHT22;70441;44.758;37.686;2023-11-19T05:37:59;8.94;81.16
78902;DHT22;70441;44.758;37.686;2023-11-19T05:39:00;8.97;81.22
78902;DHT22;70441;44.758;37.686;2023-11-19T05:40:02;8.97;81.24
78902;DHT22;70441;44.758;37.686;2023-11-19T05:41:09;8.99;81.30
78902;DHT22;70441;44.758;37.686;2023-11-19T05:42:11;9.02;81.52
78902;DHT22;70441;44.758;37.686;2023-11-19T05:43:12;9.02;81.18
78902;DHT22;70441;44.758;37.686;2023-11-19T05:44:13;8.99;80.94
78902;DHT22;70441;44.758;37.686;2023-11-19T05:45:17;8.97;81.00
78902;DHT22;70441;44.758;37.686;2023-11-19T05:46:25;9.02;81.23
78902;DHT22;70441;44.758;37.686;2023-11-19T05:47:28;9.02;81.17
78902;DHT22;70441;44.758;37.686;2023-11-19T05:48:29;9.00;81.33
78902;DHT22;70441;44.758;37.686;2023-11-19T05:49:31;8.99;81.01
78902;DHT22;70441;44.758;37.686;2023-11-19T05:50:32;8.99;81.24
78902;DHT22;70441;44.758;37.686;2023-11-19T05:53:52;9.02;81.40
78902;DHT22;70441;44.758;37.686;2023-11-19T05:54:53;9.02;81.48
78902;DHT22;70441;44.758;37.686;2023-11-19T05:55:55;9.00;81.70
78902;DHT22;70441;44.758;37.686;2023-11-19T05:56:56;9.04;81.91
78902;DHT22;70441;44.758;37.686;2023-11-19T05:57:58;9.00;81.98
78902;DHT22;70441;44.758;37.686;2023-11-19T05:59:00;9.02;82.18
78902;DHT22;70441;44.758;37.686;2023-11-19T06:00:02;9.03;82.39
78902;DHT22;70441;44.758;37.686;2023-11-19T06:01:12;9.04;82.78
78902;DHT22;70441;44.758;37.686;2023-11-19T06:02:14;9.09;82.75
78902;DHT22;70441;44.758;37.686;2023-11-19T06:03:15;9.10;82.65
78902;DHT22;70441;44.758;37.686;2023-11-19T06:04:16;9.14;82.40
78902;DHT22;70441;44.758;37.686;2023-11-19T06:05:17;9.14;82.28
78902;DHT22;70441;44.758;37.686;2023-11-19T06:06:19;9.16;82.46
78902;DHT22;70441;44.758;37.686;2023-11-19T06:07:20;9.17;82.51
78902;DHT22;70441;44.758;37.686;2023-11-19T06:08:22;9.23;82.63
78902;DHT22;70441;44.758;37.686;2023-11-19T06:09:23;9.28;82.60
78902;DHT22;70441;44.758;37.686;2023-11-19T06:10:24;9.35;82.31
78902;DHT22;70441;44.758;37.686;2023-11-19T06:11:33;9.38;82.44
78902;DHT22;70441;44.758;37.686;2023-11-19T06:12:35;9.42;82.43
78902;DHT22;70441;44.758;37.686;2023-11-19T06:13:39;9.45;82.15
78902;DHT22;70441;44.758;37.686;2023-11-19T06:14:40;9.49;82.02
78902;DHT22;70441;44.758;37.686;2023-11-19T06:15:42;9.52;82.03
78902;DHT22;70441;44.758;37.686;2023-11-19T06:16:44;9.55;81.77
78902;DHT22;70441;44.758;37.686;2023-11-19T06:17:45;9.53;81.58
78902;DHT22;70441;44.758;37.686;2023-11-19T06:18:47;9.53;81.45
78902;DHT22;70441;44.758;37.686;2023-11-19T06:19:48;9.53;81.28
78902;DHT22;70441;44.758;37.686;2023-11-19T06:20:50;9.55;81.16
78902;DHT22;70441;44.758;37.686;2023-11-19T06:21:51;9.55;81.26
78902;DHT22;70441;44.758;37.686;2023-11-19T06:22:52;9.55;81.11
78902;DHT22;70441;44.758;37.686;2023-11-19T06:23:54;9.56;81.13
78902;DHT22;70441;44.758;37.686;2023-11-19T06:24:55;9.59;81.50
78902;DHT22;70441;44.758;37.686;2023-11-19T06:25:56;9.59;81.44
78902;DHT22;70441;44.758;37.686;2023-11-19T06:26:58;9.66;81.80
78902;DHT22;70441;44.758;37.686;2023-11-19T06:27:59;9.66;81.62
78902;DHT22;70441;44.758;37.686;2023-11-19T06:29:00;9.66;81.66
78902;DHT22;70441;44.758;37.686;2023-11-19T06:30:03;9.69;81.50
78902;DHT22;70441;44.758;37.686;2023-11-19T06:31:04;9.69;81.48
78902;DHT22;70441;44.758;37.686;2023-11-19T06:32:06;9.70;81.45
78902;DHT22;70441;44.758;37.686;2023-11-19T06:33:09;9.70;80.95
78902;DHT22;70441;44.758;37.686;2023-11-19T06:34:10;9.69;81.06
78902;DHT22;70441;44.758;37.686;2023-11-19T06:35:11;9.69;81.05